sensor_id;sensor_type;location;lat;lon;timestamp;pressure;altitude;pressure_sealevel;temperature;humidity
30714;BME280;17465;47.934;33.430;2023-04-10T00:00:58;57351.61;;;-140.43;100.00
30714;BME280;17465;47.934;33.430;2023-04-10T00:03:33;57319.84;;;-140.43;100.00
30714;BME280;17465;47.934;33.430;2023-04-10T00:06:05;57352.67;;;-140.43;100.00
30714;BME280;17465;47.934;33.430;2023-04-10T00:08:36;57332.55;;;-140.43;100.00
30714;BME280;17465;47.934;33.430;2023-04-10T00:11:07;57332.55;;;-140.43;100.00
30714;BME280;17465;47.934;33.430;2023-04-10T00:13:38;57341.02;;;-140.43;100.00
30714;BME280;17465;47.934;33.430;2023-04-10T00:16:09;57381.27;;;-140.43;100.00
30714;BME280;17465;47.934;33.430;2023-04-10T00:18:40;57331.49;;;-140.43;100.00
30714;BME280;17465;47.934;33.430;2023-04-10T00:21:13;57318.78;;;-140.43;100.00
30714;BME280;17465;47.934;33.430;2023-04-10T00:23:44;57312.43;;;-140.43;100.00
30714;BME280;17465;47.934;33.430;2023-04-10T00:26:17;57335.73;;;-140.43;100.00
30714;BME280;17465;47.934;33.430;2023-04-10T00:28:48;57320.90;;;-140.43;100.00
30714;BME280;17465;47.934;33.430;2023-04-10T00:31:19;57323.02;;;-140.43;100.00
30714;BME280;17465;47.934;33.430;2023-04-10T00:33:50;57335.73;;;-140.43;100.00
30714;BME280;17465;47.934;33.430;2023-04-10T00:36:24;57359.03;;;-140.43;100.00
30714;BME280;17465;47.934;33.430;2023-04-10T00:38:54;57329.37;;;-140.43;100.00
30714;BME280;17465;47.934;33.430;2023-04-10T00:41:25;57336.79;;;-140.43;100.00
30714;BME280;17465;47.934;33.430;2023-04-10T00:43:57;57365.38;;;-140.43;100.00
30714;BME280;17465;47.934;33.430;2023-04-10T00:46:27;57365.38;;;-140.43;100.00
30714;BME280;17465;47.934;33.430;2023-04-10T00:48:59;57339.96;;;-140.43;100.00
30714;BME280;17465;47.934;33.430;2023-04-10T00:51:33;57333.61;;;-140.43;100.00
30714;BME280;17465;47.934;33.430;2023-04-10T00:54:05;57328.31;;;-140.43;100.00
30714;BME280;17465;47.934;33.430;2023-04-10T00:56:36;57328.31;;;-140.43;100.00
30714;BME280;17465;47.934;33.430;2023-04-10T00:59:07;57324.07;;;-140.43;100.00
30714;BME280;17465;47.934;33.430;2023-04-10T01:01:38;57343.14;;;-140.43;100.00
30714;BME280;17465;47.934;33.430;2023-04-10T01:04:10;57370.68;;;-140.43;100.00
30714;BME280;17465;47.934;33.430;2023-04-10T01:06:53;57343.14;;;-140.43;100.00
30714;BME280;17465;47.934;33.430;2023-04-10T01:09:31;57337.84;;;-140.43;100.00
30714;BME280;17465;47.934;33.430;2023-04-10T01:18:16;57342.08;;;-140.43;100.00
30714;BME280;17465;47.934;33.430;2023-04-10T01:20:46;57327.25;;;-140.43;100.00
30714;BME280;17465;47.934;33.430;2023-04-10T01:26:07;57327.25;;;-140.43;100.00
30714;BME280;17465;47.934;33.430;2023-04-10T01:31:49;57325.14;;;-140.43;100.00
30714;BME280;17465;47.934;33.430;2023-04-10T01:34:23;57348.43;;;-140.43;100.00
30714;BME280;17465;47.934;33.430;2023-04-10T01:36:54;57334.67;;;-140.43;100.00
30714;BME280;17465;47.934;33.430;2023-04-10T01:39:25;57337.84;;;-140.43;100.00
30714;BME280;17465;47.934;33.430;2023-04-10T01:41:57;57355.85;;;-140.43;100.00
30714;BME280;17465;47.934;33.430;2023-04-10T01:44:30;57317.72;;;-140.43;100.00
30714;BME280;17465;47.934;33.430;2023-04-10T01:47:02;57355.85;;;-140.43;100.00
30714;BME280;17465;47.934;33.430;2023-04-10T01:49:37;57336.79;;;-140.43;100.00
30714;BME280;17465;47.934;33.430;2023-04-10T01:52:11;57345.26;;;-140.43;100.00
30714;BME280;17465;47.934;33.430;2023-04-10T01:54:46;57345.26;;;-140.43;100.00
30714;BME280;17465;47.934;33.430;2023-04-10T01:57:17;57344.20;;;-140.43;100.00
30714;BME280;17465;47.934;33.430;2023-04-10T01:59:49;57319.84;;;-140.43;100.00
30714;BME280;17465;47.934;33.430;2023-04-10T02:02:20;57337.84;;;-140.43;100.00
30714;BME280;17465;47.934;33.430;2023-04-10T02:04:50;57327.25;;;-140.43;100.00
30714;BME280;17465;47.934;33.430;2023-04-10T02:07:30;57327.25;;;-140.43;100.00
30714;BME280;17465;47.934;33.430;2023-04-10T02:13:12;57330.43;;;-140.43;100.00
30714;BME280;17465;47.934;33.430;2023-04-10T02:15:59;57336.79;;;-140.43;100.00
30714;BME280;17465;47.934;33.430;2023-04-10T02:18:36;57310.31;;;-140.43;100.00
30714;BME280;17465;47.934;33.430;2023-04-10T02:21:07;57347.38;;;-140.43;100.00
30714;BME280;17465;47.934;33.430;2023-04-10T02:23:38;57319.84;;;-140.43;100.00
30714;BME280;17465;47.934;33.430;2023-04-10T02:26:09;57323.02;;;-140.43;100.00
30714;BME280;17465;47.934;33.430;2023-04-10T02:28:40;57323.02;;;-140.43;100.00
30714;BME280;17465;47.934;33.430;2023-04-10T02:31:12;57324.07;;;-140.43;100.00
30714;BME280;17465;47.934;33.430;2023-04-10T02:33:43;57328.31;;;-140.43;100.00
30714;BME280;17465;47.934;33.430;2023-04-10T02:36:13;57344.20;;;-140.43;100.00
30714;BME280;17465;47.934;33.430;2023-04-10T02:38:44;57367.50;;;-140.43;100.00
30714;BME280;17465;47.934;33.430;2023-04-10T02:41:15;57367.50;;;-140.43;100.00
30714;BME280;17465;47.934;33.430;2023-04-10T02:43:50;57328.31;;;-140.43;100.00
30714;BME280;17465;47.934;33.430;2023-04-10T02:46:21;57327.25;;;-140.43;100.00
30714;BME280;17465;47.934;33.430;2023-04-10T02:48:52;57329.37;;;-140.43;100.00
30714;BME280;17465;47.934;33.430;2023-04-10T02:51:22;57325.14;;;-140.43;100.00
30714;BME280;17465;47.934;33.430;2023-04-10T02:53:53;57326.20;;;-140.43;100.00
30714;BME280;17465;47.934;33.430;2023-04-10T02:56:24;57334.67;;;-140.43;100.00
30714;BME280;17465;47.934;33.430;2023-04-10T02:58:54;57361.14;;;-140.43;100.00
30714;BME280;17465;47.934;33.430;2023-04-10T03:01:25;57335.73;;;-140.43;100.00
30714;BME280;17465;47.934;33.430;2023-04-10T03:03:56;57316.66;;;-140.43;100.00
30714;BME280;17465;47.934;33.430;2023-04-10T03:06:28;57342.08;;;-140.43;100.00
30714;BME280;17465;47.934;33.430;2023-04-10T03:08:58;57342.08;;;-140.43;100.00
30714;BME280;17465;47.934;33.430;2023-04-10T03:11:29;57331.49;;;-140.43;100.00
30714;BME280;17465;47.934;33.430;2023-04-10T03:14:00;57342.08;;;-140.43;100.00
30714;BME280;17465;47.934;33.430;2023-04-10T03:16:31;57312.43;;;-140.43;100.00
30714;BME280;17465;47.934;33.430;2023-04-10T03:19:02;57325.14;;;-140.43;100.00
30714;BME280;17465;47.934;33.430;2023-04-10T03:21:34;57334.67;;;-140.43;100.00
30714;BME280;17465;47.934;33.430;2023-04-10T03:24:04;57339.96;;;-140.43;100.00
30714;BME280;17465;47.934;33.430;2023-04-10T03:26:34;57350.55;;;-140.43;100.00
30714;BME280;17465;47.934;33.430;2023-04-10T03:29:05;57341.02;;;-140.43;100.00
30714;BME280;17465;47.934;33.430;2023-04-10T03:31:36;57321.96;;;-140.43;100.00
30714;BME280;17465;47.934;33.430;2023-04-10T03:34:07;57321.96;;;-140.43;100.00
30714;BME280;17465;47.934;33.430;2023-04-10T03:36:37;57333.61;;;-140.43;100.00
30714;BME280;17465;47.934;33.430;2023-04-10T03:39:08;57301.84;;;-140.43;100.00
30714;BME280;17465;47.934;33.430;2023-04-10T03:41:39;57343.14;;;-140.43;100.00
30714;BME280;17465;47.934;33.430;2023-04-10T03:44:10;57324.07;;;-140.43;100.00
30714;BME280;17465;47.934;33.430;2023-04-10T03:46:41;57305.01;;;-140.43;100.00
30714;BME280;17465;47.934;33.430;2023-04-10T03:49:11;57333.61;;;-140.43;100.00
30714;BME280;17465;47.934;33.430;2023-04-10T03:51:41;57344.20;;;-140.43;100.00
30714;BME280;17465;47.934;33.430;2023-04-10T03:54:12;57320.90;;;-140.43;100.00
30714;BME280;17465;47.934;33.430;2023-04-10T03:56:43;57346.32;;;-140.43;100.00
30714;BME280;17465;47.934;33.430;2023-04-10T03:59:13;57336.79;;;-140.43;100.00
30714;BME280;17465;47.934;33.430;2023-04-10T04:01:46;57328.31;;;-140.43;100.00
30714;BME280;17465;47.934;33.430;2023-04-10T04:04:22;57335.73;;;-140.43;100.00
30714;BME280;17465;47.934;33.430;2023-04-10T04:06:49;57324.07;;;-140.43;100.00
30714;BME280;17465;47.934;33.430;2023-04-10T04:09:19;57355.85;;;-140.43;100.00
30714;BME280;17465;47.934;33.430;2023-04-10T04:11:50;57339.96;;;-140.43;100.00
30714;BME280;17465;47.934;33.430;2023-04-10T04:14:21;57349.49;;;-140.43;100.00
30714;BME280;17465;47.934;33.430;2023-04-10T04:16:52;57384.44;;;-140.43;100.00
30714;BME280;17465;47.934;33.430;2023-04-10T04:19:23;57302.89;;;-140.43;100.00
30714;BME280;17465;47.934;33.430;2023-04-10T04:21:54;57353.73;;;-140.43;100.00
30714;BME280;17465;47.934;33.430;2023-04-10T04:24:25;57325.14;;;-140.43;100.00
30714;BME280;17465;47.934;33.430;2023-04-10T04:26:56;57348.43;;;-140.43;100.00
30714;BME280;17465;47.934;33.430;2023-04-10T04:29:27;57346.32;;;-140.43;100.00
30714;BME280;17465;47.934;33.430;2023-04-10T04:31:57;57317.72;;;-140.43;100.00
30714;BME280;17465;47.934;33.430;2023-04-10T04:34:28;57320.90;;;-140.43;100.00
30714;BME280;17465;47.934;33.430;2023-04-10T04:36:59;57331.49;;;-140.43;100.00
30714;BME280;17465;47.934;33.430;2023-04-10T04:39:29;57349.49;;;-140.43;100.00
30714;BME280;17465;47.934;33.430;2023-04-10T04:42:01;57316.66;;;-140.43;100.00
30714;BME280;17465;47.934;33.430;2023-04-10T04:44:34;57314.55;;;-140.43;100.00
30714;BME280;17465;47.934;33.430;2023-04-10T04:47:08;57328.31;;;-140.43;100.00
30714;BME280;17465;47.934;33.430;2023-04-10T04:49:40;57341.02;;;-140.43;100.00
30714;BME280;17465;47.934;33.430;2023-04-10T04:52:14;57359.03;;;-140.43;100.00
30714;BME280;17465;47.934;33.430;2023-04-10T04:54:47;57318.78;;;-140.43;100.00
30714;BME280;17465;47.934;33.430;2023-04-10T04:57:20;57318.78;;;-140.43;100.00
30714;BME280;17465;47.934;33.430;2023-04-10T04:59:53;57350.55;;;-140.43;100.00
30714;BME280;17465;47.934;33.430;2023-04-10T05:02:26;57338.90;;;-140.43;100.00
30714;BME280;17465;47.934;33.430;2023-04-10T05:05:00;57335.73;;;-140.43;100.00
30714;BME280;17465;47.934;33.430;2023-04-10T05:07:32;57352.67;;;-140.43;100.00
30714;BME280;17465;47.934;33.430;2023-04-10T05:10:03;57331.49;;;-140.43;100.00
30714;BME280;17465;47.934;33.430;2023-04-10T05:12:34;57346.32;;;-140.43;100.00
30714;BME280;17465;47.934;33.430;2023-04-10T05:15:07;57328.31;;;-140.43;100.00
30714;BME280;17465;47.934;33.430;2023-04-10T05:17:38;57328.31;;;-140.43;100.00
30714;BME280;17465;47.934;33.430;2023-04-10T05:20:09;57331.49;;;-140.43;100.00
30714;BME280;17465;47.934;33.430;2023-04-10T05:22:40;57331.49;;;-140.43;100.00
30714;BME280;17465;47.934;33.430;2023-04-10T05:25:11;57342.08;;;-140.43;100.00
30714;BME280;17465;47.934;33.430;2023-04-10T05:27:43;57345.26;;;-140.43;100.00
30714;BME280;17465;47.934;33.430;2023-04-10T05:30:15;57338.90;;;-140.43;100.00
30714;BME280;17465;47.934;33.430;2023-04-10T05:32:46;57320.90;;;-140.43;100.00
30714;BME280;17465;47.934;33.430;2023-04-10T05:35:17;57352.67;;;-140.43;100.00
30714;BME280;17465;47.934;33.430;2023-04-10T05:37:48;57326.20;;;-140.43;100.00
30714;BME280;17465;47.934;33.430;2023-04-10T05:40:21;57306.07;;;-140.43;100.00
30714;BME280;17465;47.934;33.430;2023-04-10T05:42:53;57349.49;;;-140.43;100.00
30714;BME280;17465;47.934;33.430;2023-04-10T05:45:24;57343.14;;;-140.43;100.00
30714;BME280;17465;47.934;33.430;2023-04-10T05:47:56;57343.14;;;-140.43;100.00
30714;BME280;17465;47.934;33.430;2023-04-10T05:50:26;57326.20;;;-140.43;100.00
30714;BME280;17465;47.934;33.430;2023-04-10T05:53:00;57344.20;;;-140.43;100.00
30714;BME280;17465;47.934;33.430;2023-04-10T05:55:34;57315.61;;;-140.43;100.00
30714;BME280;17465;47.934;33.430;2023-04-10T05:58:08;57315.61;;;-140.43;100.00
30714;BME280;17465;47.934;33.430;2023-04-10T06:00:39;57356.91;;;-140.43;100.00
30714;BME280;17465;47.934;33.430;2023-04-10T06:03:15;57352.67;;;-140.43;100.00
30714;BME280;17465;47.934;33.430;2023-04-10T06:05:46;57352.67;;;-140.43;100.00
30714;BME280;17465;47.934;33.430;2023-04-10T06:08:19;57339.96;;;-140.43;100.00
30714;BME280;17465;47.934;33.430;2023-04-10T06:10:51;57350.55;;;-140.43;100.00
30714;BME280;17465;47.934;33.430;2023-04-10T06:13:24;57347.38;;;-140.43;100.00
30714;BME280;17465;47.934;33.430;2023-04-10T06:16:00;57342.08;;;-140.43;100.00
30714;BME280;17465;47.934;33.430;2023-04-10T06:18:31;57328.31;;;-140.43;100.00
30714;BME280;17465;47.934;33.430;2023-04-10T06:21:05;57347.38;;;-140.43;100.00
30714;BME280;17465;47.934;33.430;2023-04-10T06:23:36;57334.67;;;-140.43;100.00
30714;BME280;17465;47.934;33.430;2023-04-10T06:26:08;57366.44;;;-140.43;100.00
30714;BME280;17465;47.934;33.430;2023-04-10T06:28:40;57347.38;;;-140.43;100.00
30714;BME280;17465;47.934;33.430;2023-04-10T06:31:12;57311.37;;;-140.43;100.00
30714;BME280;17465;47.934;33.430;2023-04-10T06:33:53;57356.91;;;-140.43;100.00
30714;BME280;17465;47.934;33.430;2023-04-10T06:36:26;57325.14;;;-140.43;100.00
30714;BME280;17465;47.934;33.430;2023-04-10T06:38:58;57335.73;;;-140.43;100.00
30714;BME280;17465;47.934;33.430;2023-04-10T06:41:33;57349.49;;;-140.43;100.00
30714;BME280;17465;47.934;33.430;2023-04-10T06:44:05;57327.25;;;-140.43;100.00
30714;BME280;17465;47.934;33.430;2023-04-10T06:46:39;57344.20;;;-140.43;100.00
30714;BME280;17465;47.934;33.430;2023-04-10T06:49:10;57325.14;;;-140.43;100.00
30714;BME280;17465;47.934;33.430;2023-04-10T06:51:44;57333.61;;;-140.43;100.00
30714;BME280;17465;47.934;33.430;2023-04-10T06:54:16;57350.55;;;-140.43;100.00
30714;BME280;17465;47.934;33.430;2023-04-10T06:56:47;57324.07;;;-140.43;100.00
30714;BME280;17465;47.934;33.430;2023-04-10T06:59:17;57355.85;;;-140.43;100.00
30714;BME280;17465;47.934;33.430;2023-04-10T07:01:52;57355.85;;;-140.43;100.00
30714;BME280;17465;47.934;33.430;2023-04-10T07:04:26;57343.14;;;-140.43;100.00
30714;BME280;17465;47.934;33.430;2023-04-10T07:07:02;57352.67;;;-140.43;100.00
30714;BME280;17465;47.934;33.430;2023-04-10T07:09:33;57352.67;;;-140.43;100.00
30714;BME280;17465;47.934;33.430;2023-04-10T07:12:03;57312.43;;;-140.43;100.00
30714;BME280;17465;47.934;33.430;2023-04-10T07:14:36;57350.55;;;-140.43;100.00
30714;BME280;17465;47.934;33.430;2023-04-10T07:17:16;57350.55;;;-140.43;100.00
30714;BME280;17465;47.934;33.430;2023-04-10T07:19:43;57330.43;;;-140.43;100.00
30714;BME280;17465;47.934;33.430;2023-04-10T07:22:18;57363.26;;;-140.43;98.80
30714;BME280;17465;47.934;33.430;2023-04-10T07:24:49;57335.73;;;-140.43;98.33
30714;BME280;17465;47.934;33.430;2023-04-10T07:27:29;57329.37;;;-140.43;98.90
30714;BME280;17465;47.934;33.430;2023-04-10T07:29:58;57337.84;;;-140.43;97.04
30714;BME280;17465;47.934;33.430;2023-04-10T07:32:32;57337.84;;;-140.43;97.04
30714;BME280;17465;47.934;33.430;2023-04-10T07:35:05;57324.07;;;-140.43;96.38
30714;BME280;17465;47.934;33.430;2023-04-10T07:37:38;57342.08;;;-140.43;96.33
30714;BME280;17465;47.934;33.430;2023-04-10T07:40:09;57342.08;;;-140.43;96.33
30714;BME280;17465;47.934;33.430;2023-04-10T07:42:42;57356.91;;;-140.43;95.49
30714;BME280;17465;47.934;33.430;2023-04-10T07:45:16;57356.91;;;-140.43;95.49
30714;BME280;17465;47.934;33.430;2023-04-10T07:47:45;57336.79;;;-140.43;94.30
30714;BME280;17465;47.934;33.430;2023-04-10T07:50:17;57336.79;;;-140.43;94.30
30714;BME280;17465;47.934;33.430;2023-04-10T07:52:49;57342.08;;;-140.43;93.83
30714;BME280;17465;47.934;33.430;2023-04-10T07:55:21;57338.90;;;-140.43;95.00
30714;BME280;17465;47.934;33.430;2023-04-10T07:57:53;57338.90;;;-140.43;95.00
30714;BME280;17465;47.934;33.430;2023-04-10T08:00:26;57351.61;;;-140.43;92.90
30714;BME280;17465;47.934;33.430;2023-04-10T08:02:57;57341.02;;;-140.43;90.49
30714;BME280;17465;47.934;33.430;2023-04-10T08:05:30;57354.79;;;-140.43;89.93
30714;BME280;17465;47.934;33.430;2023-04-10T08:08:04;57349.49;;;-140.43;89.20
30714;BME280;17465;47.934;33.430;2023-04-10T08:10:36;57363.26;;;-140.43;85.48
30714;BME280;17465;47.934;33.430;2023-04-10T08:13:08;57370.68;;;-140.43;84.60
30714;BME280;17465;47.934;33.430;2023-04-10T08:15:39;57371.73;;;-140.43;81.15
30714;BME280;17465;47.934;33.430;2023-04-10T08:18:10;57371.73;;;-140.43;79.09
30714;BME280;17465;47.934;33.430;2023-04-10T08:20:41;57371.73;;;-140.43;79.09
30714;BME280;17465;47.934;33.430;2023-04-10T08:23:14;57372.79;;;-140.43;75.86
30714;BME280;17465;47.934;33.430;2023-04-10T08:25:47;57372.79;;;-140.43;76.50
30714;BME280;17465;47.934;33.430;2023-04-10T08:28:18;57392.91;;;-140.43;75.75
30714;BME280;17465;47.934;33.430;2023-04-10T08:33:35;57391.86;;;-140.43;72.60
30714;BME280;17465;47.934;33.430;2023-04-10T08:36:20;57393.98;;;-140.43;76.03
30714;BME280;17465;47.934;33.430;2023-04-10T08:38:58;57387.62;;;-140.43;74.45
30714;BME280;17465;47.934;33.430;2023-04-10T08:41:35;57387.62;;;-140.43;74.45
30714;BME280;17465;47.934;33.430;2023-04-10T08:44:07;57436.34;;;-140.43;71.48
30714;BME280;17465;47.934;33.430;2023-04-10T08:46:45;57398.21;;;-140.43;70.74
30714;BME280;17465;47.934;33.430;2023-04-10T08:49:16;57383.38;;;-140.43;72.13
30714;BME280;17465;47.934;33.430;2023-04-10T08:51:57;57383.38;;;-140.43;72.13
30714;BME280;17465;47.934;33.430;2023-04-10T08:54:33;57404.57;;;-140.43;70.24
30714;BME280;17465;47.934;33.430;2023-04-10T08:57:10;57413.04;;;-140.43;69.88
30714;BME280;17465;47.934;33.430;2023-04-10T08:59:43;57419.39;;;-140.43;65.75
30714;BME280;17465;47.934;33.430;2023-04-10T09:02:19;57415.16;;;-140.43;64.43
30714;BME280;17465;47.934;33.430;2023-04-10T09:04:59;57427.87;;;-140.43;63.92
30714;BME280;17465;47.934;33.430;2023-04-10T09:07:31;57436.34;;;-140.43;67.73
30714;BME280;17465;47.934;33.430;2023-04-10T09:10:03;57399.27;;;-140.43;64.85
30714;BME280;17465;47.934;33.430;2023-04-10T09:12:47;57399.27;;;-140.43;64.85
30714;BME280;17465;47.934;33.430;2023-04-10T09:15:21;57447.99;;;-140.43;64.85
30714;BME280;17465;47.934;33.430;2023-04-10T09:17:56;57416.21;;;-140.43;65.54
30714;BME280;17465;47.934;33.430;2023-04-10T09:20:32;57380.21;;;-140.43;66.57
30714;BME280;17465;47.934;33.430;2023-04-10T09:23:24;57373.85;;;-140.43;68.67
30714;BME280;17465;47.934;33.430;2023-04-10T09:26:28;57389.74;;;-140.43;64.11
30714;BME280;17465;47.934;33.430;2023-04-10T09:29:09;57436.34;;;-140.43;65.23
30714;BME280;17465;47.934;33.430;2023-04-10T09:31:44;57436.34;;;-140.43;65.23
30714;BME280;17465;47.934;33.430;2023-04-10T09:34:19;57410.92;;;-140.43;66.71
30714;BME280;17465;47.934;33.430;2023-04-10T09:36:56;57390.80;;;-140.43;66.38
30714;BME280;17465;47.934;33.430;2023-04-10T09:39:38;57398.21;;;-140.43;67.72
30714;BME280;17465;47.934;33.430;2023-04-10T09:42:09;57413.04;;;-140.43;67.33
30714;BME280;17465;47.934;33.430;2023-04-10T09:44:41;57398.21;;;-140.43;65.71
30714;BME280;17465;47.934;33.430;2023-04-10T09:47:20;57402.45;;;-140.43;64.92
30714;BME280;17465;47.934;33.430;2023-04-10T09:49:54;57419.39;;;-140.43;63.53
30714;BME280;17465;47.934;33.430;2023-04-10T09:52:28;57441.63;;;-140.43;64.21
30714;BME280;17465;47.934;33.430;2023-04-10T09:55:01;57441.63;;;-140.43;64.21
30714;BME280;17465;47.934;33.430;2023-04-10T09:57:34;57424.69;;;-140.43;65.29
30714;BME280;17465;47.934;33.430;2023-04-10T10:00:09;57427.87;;;-140.43;67.31
30714;BME280;17465;47.934;33.430;2023-04-10T10:02:43;57428.92;;;-140.43;61.91
30714;BME280;17465;47.934;33.430;2023-04-10T10:05:15;57426.80;;;-140.43;62.42
30714;BME280;17465;47.934;33.430;2023-04-10T10:07:50;57423.63;;;-140.43;61.41
30714;BME280;17465;47.934;33.430;2023-04-10T10:10:23;57423.63;;;-140.43;61.41
30714;BME280;17465;47.934;33.430;2023-04-10T10:13:02;57427.87;;;-140.43;64.04
30714;BME280;17465;47.934;33.430;2023-04-10T10:15:46;57407.74;;;-140.43;67.23
30714;BME280;17465;47.934;33.430;2023-04-10T10:18:35;57403.51;;;-140.43;65.67
30714;BME280;17465;47.934;33.430;2023-04-10T10:21:04;57403.51;;;-140.43;65.67
30714;BME280;17465;47.934;33.430;2023-04-10T10:23:36;57446.93;;;-140.43;64.32
30714;BME280;17465;47.934;33.430;2023-04-10T10:26:08;57396.09;;;-140.43;64.22
30714;BME280;17465;47.934;33.430;2023-04-10T10:28:40;57413.04;;;-140.43;64.52
30714;BME280;17465;47.934;33.430;2023-04-10T10:31:13;57427.87;;;-140.43;65.39
30714;BME280;17465;47.934;33.430;2023-04-10T10:33:44;57427.87;;;-140.43;65.39
30714;BME280;17465;47.934;33.430;2023-04-10T10:36:16;57407.74;;;-140.43;66.03
30714;BME280;17465;47.934;33.430;2023-04-10T10:41:42;57436.34;;;-140.43;63.29
30714;BME280;17465;47.934;33.430;2023-04-10T10:44:22;57436.34;;;-140.43;63.29
30714;BME280;17465;47.934;33.430;2023-04-10T10:47:13;57421.51;;;-140.43;63.43
30714;BME280;17465;47.934;33.430;2023-04-10T10:49:55;57395.03;;;-140.43;63.45
30714;BME280;17465;47.934;33.430;2023-04-10T11:03:43;57392.91;;;-140.43;59.10
30714;BME280;17465;47.934;33.430;2023-04-10T11:06:19;57413.04;;;-140.43;57.28
30714;BME280;17465;47.934;33.430;2023-04-10T11:08:52;57413.04;;;-140.43;57.28
30714;BME280;17465;47.934;33.430;2023-04-10T11:11:26;57411.98;;;-140.43;57.78
30714;BME280;17465;47.934;33.430;2023-04-10T11:19:13;57405.62;;;-140.43;56.51
30714;BME280;17465;47.934;33.430;2023-04-10T11:27:37;57441.63;;;-140.43;55.76
30714;BME280;17465;47.934;33.430;2023-04-10T11:30:29;57441.63;;;-140.43;55.76
30714;BME280;17465;47.934;33.430;2023-04-10T11:32:57;57415.16;;;-140.43;54.72
30714;BME280;17465;47.934;33.430;2023-04-10T11:35:28;57426.80;;;-140.43;55.87
30714;BME280;17465;47.934;33.430;2023-04-10T11:38:15;57425.75;;;-140.43;55.07
30714;BME280;17465;47.934;33.430;2023-04-10T11:40:57;57410.92;;;-140.43;53.55
30714;BME280;17465;47.934;33.430;2023-04-10T11:43:33;57428.92;;;-140.43;52.55
30714;BME280;17465;47.934;33.430;2023-04-10T11:46:06;57444.81;;;-140.43;51.45
30714;BME280;17465;47.934;33.430;2023-04-10T11:48:37;57467.05;;;-140.43;50.16
30714;BME280;17465;47.934;33.430;2023-04-10T11:51:10;57467.05;;;-140.43;50.16
30714;BME280;17465;47.934;33.430;2023-04-10T11:53:49;57457.52;;;-140.43;48.71
30714;BME280;17465;47.934;33.430;2023-04-10T11:56:20;57457.52;;;-140.43;48.71
30714;BME280;17465;47.934;33.430;2023-04-10T11:58:55;57451.16;;;-140.43;48.34
30714;BME280;17465;47.934;33.430;2023-04-10T12:01:28;57459.64;;;-140.43;51.23
30714;BME280;17465;47.934;33.430;2023-04-10T12:04:02;57459.64;;;-140.43;51.23
30714;BME280;17465;47.934;33.430;2023-04-10T12:06:37;57474.46;;;-140.43;45.05
30714;BME280;17465;47.934;33.430;2023-04-10T12:12:08;57468.11;;;-140.43;46.48
30714;BME280;17465;47.934;33.430;2023-04-10T12:14:41;57464.93;;;-140.43;50.23
30714;BME280;17465;47.934;33.430;2023-04-10T12:17:12;57452.23;;;-140.43;47.27
30714;BME280;17465;47.934;33.430;2023-04-10T12:19:45;57451.16;;;-140.43;46.94
30714;BME280;17465;47.934;33.430;2023-04-10T12:22:22;57414.10;;;-140.43;46.94
30714;BME280;17465;47.934;33.430;2023-04-10T12:24:51;57460.70;;;-140.43;49.20
30714;BME280;17465;47.934;33.430;2023-04-10T12:27:26;57460.70;;;-140.43;49.20
30714;BME280;17465;47.934;33.430;2023-04-10T12:29:57;57419.39;;;-140.43;52.66
30714;BME280;17465;47.934;33.430;2023-04-10T12:32:28;57459.64;;;-140.43;52.12
30714;BME280;17465;47.934;33.430;2023-04-10T12:34:59;57418.33;;;-140.43;54.25
30714;BME280;17465;47.934;33.430;2023-04-10T12:37:49;57409.86;;;-140.43;53.97
30714;BME280;17465;47.934;33.430;2023-04-10T12:40:23;57409.86;;;-140.43;53.97
30714;BME280;17465;47.934;33.430;2023-04-10T12:42:53;57424.69;;;-140.43;57.68
30714;BME280;17465;47.934;33.430;2023-04-10T12:45:40;57453.28;;;-140.43;56.32
30714;BME280;17465;47.934;33.430;2023-04-10T12:48:11;57419.39;;;-140.43;56.32
30714;BME280;17465;47.934;33.430;2023-04-10T12:50:47;57419.39;;;-140.43;55.22
30714;BME280;17465;47.934;33.430;2023-04-10T12:53:24;57442.69;;;-140.43;57.13
30714;BME280;17465;47.934;33.430;2023-04-10T12:56:05;57414.10;;;-140.43;55.30
30714;BME280;17465;47.934;33.430;2023-04-10T12:58:37;57415.16;;;-140.43;56.86
30714;BME280;17465;47.934;33.430;2023-04-10T13:01:12;57423.63;;;-140.43;55.57
30714;BME280;17465;47.934;33.430;2023-04-10T13:03:43;57423.63;;;-140.43;55.57
30714;BME280;17465;47.934;33.430;2023-04-10T13:06:15;57403.51;;;-140.43;56.36
30714;BME280;17465;47.934;33.430;2023-04-10T13:08:47;57403.51;;;-140.43;56.36
30714;BME280;17465;47.934;33.430;2023-04-10T13:11:20;57449.05;;;-140.43;56.85
30714;BME280;17465;47.934;33.430;2023-04-10T13:14:01;57449.05;;;-140.43;56.85
30714;BME280;17465;47.934;33.430;2023-04-10T13:16:33;57454.34;;;-140.43;57.39
30714;BME280;17465;47.934;33.430;2023-04-10T13:19:06;57433.16;;;-140.43;57.14
30714;BME280;17465;47.934;33.430;2023-04-10T13:21:42;57432.10;;;-140.43;52.02
30714;BME280;17465;47.934;33.430;2023-04-10T13:24:13;57442.69;;;-140.43;53.64
30714;BME280;17465;47.934;33.430;2023-04-10T13:26:45;57445.87;;;-140.43;55.28
30714;BME280;17465;47.934;33.430;2023-04-10T13:29:16;57447.99;;;-140.43;55.42
30714;BME280;17465;47.934;33.430;2023-04-10T13:31:47;57416.21;;;-140.43;55.45
30714;BME280;17465;47.934;33.430;2023-04-10T13:34:19;57422.57;;;-140.43;52.64
30714;BME280;17465;47.934;33.430;2023-04-10T13:36:52;57425.75;;;-140.43;53.11
30714;BME280;17465;47.934;33.430;2023-04-10T13:39:24;57421.51;;;-140.43;53.34
30714;BME280;17465;47.934;33.430;2023-04-10T13:41:57;57421.51;;;-140.43;53.34